Time;durP1;ratioP1;P1;durP2;ratioP2;P2;SDS_P1;SDS_P2;PMS_P1;PMS_P2;Temp;Humidity;BMP_temperature;BMP_pressure;BME280_temperature;BME280_humidity;BME280_pressure;Samples;Min_cycle;Max_cycle;Signal;HPM_P1;HPM_P2
2022/10/02 00:00:05;;;;;;;38.08;4.63;;;16.40;99.90;;;;;;4198094;28;20179;-91
2022/10/02 00:02:29;;;;;;;29.02;4.30;;;16.40;99.90;;;;;;4216889;28;20719;-96
2022/10/02 00:04:59;;;;;;;40.28;4.55;;;16.60;99.90;;;;;;4215311;28;20652;-92
2022/10/02 00:07:05;;;;;;;31.98;4.65;;;16.50;99.90;;;;;;4209655;28;20666;-93
2022/10/02 00:09:13;;;;;;;38.47;4.50;;;16.40;99.90;;;;;;4199536;28;20265;-92
2022/10/02 00:11:23;;;;;;;43.17;4.93;;;16.40;99.90;;;;;;4198545;28;20209;-91
2022/10/02 00:13:47;;;;;;;31.10;3.45;;;16.30;99.90;;;;;;4200117;28;20174;-91
2022/10/02 00:15:49;;;;;;;24.92;4.18;;;16.40;99.90;;;;;;4198779;28;20167;-95
2022/10/02 00:17:54;;;;;;;37.55;5.05;;;16.50;99.90;;;;;;4200350;28;20175;-95
2022/10/02 00:19:55;;;;;;;34.15;4.95;;;16.40;99.90;;;;;;4201639;28;20183;-92
2022/10/02 00:22:17;;;;;;;36.92;4.18;;;16.40;99.90;;;;;;4202061;28;20187;-96
2022/10/02 00:24:25;;;;;;;34.33;4.38;;;16.50;99.90;;;;;;4202029;28;20183;-96
2022/10/02 00:26:28;;;;;;;40.42;4.55;;;16.60;99.90;;;;;;4201831;28;20170;-91
2022/10/02 00:28:39;;;;;;;29.35;4.15;;;16.60;99.90;;;;;;4205085;28;20202;-95
2022/10/02 00:31:12;;;;;;;35.83;4.95;;;16.50;99.90;;;;;;4203710;28;20206;-96
2022/10/02 00:33:28;;;;;;;29.38;4.47;;;16.60;99.90;;;;;;4200236;28;20524;-96
2022/10/02 00:35:36;;;;;;;39.90;4.97;;;16.50;99.90;;;;;;4202605;28;20252;-95
2022/10/02 00:37:45;;;;;;;31.55;4.13;;;16.50;99.90;;;;;;4202534;28;20183;-96
2022/10/02 00:40:13;;;;;;;47.35;4.43;;;16.40;99.90;;;;;;4202779;28;20191;-91
2022/10/02 00:42:33;;;;;;;35.42;3.90;;;16.40;99.90;;;;;;4221465;28;20743;-96
2022/10/02 00:44:47;;;;;;;36.00;4.70;;;16.40;99.90;;;;;;4204410;28;20527;-90
2022/10/02 00:47:26;;;;;;;36.45;4.05;;;16.40;99.90;;;;;;4203242;28;20581;-91
2022/10/02 00:49:48;;;;;;;38.58;5.20;;;16.60;99.90;;;;;;4194385;28;20293;-91
2022/10/02 00:52:11;;;;;;;38.08;4.90;;;16.50;99.90;;;;;;4211388;28;20264;-96
2022/10/02 00:54:29;;;;;;;34.90;4.82;;;16.30;99.90;;;;;;4220562;28;20205;-92
2022/10/02 00:56:39;;;;;;;32.78;4.55;;;16.30;99.90;;;;;;4199886;28;20216;-92
2022/10/02 00:59:34;;;;;;;26.02;3.72;;;16.20;99.90;;;;;;4200410;28;20662;-92
2022/10/02 01:01:45;;;;;;;43.30;5.03;;;16.10;99.90;;;;;;4183045;28;20271;-92
2022/10/02 01:03:52;;;;;;;38.15;4.30;;;16.10;99.90;;;;;;4197290;28;20191;-93
2022/10/02 01:05:52;;;;;;;27.33;3.85;;;16.20;99.90;;;;;;4199934;28;20181;-92
2022/10/02 01:07:54;;;;;;;34.50;4.70;;;16.20;99.90;;;;;;4216682;28;20617;-93
2022/10/02 01:09:56;;;;;;;43.90;5.07;;;16.20;99.90;;;;;;4199643;28;20183;-95
2022/10/02 01:11:57;;;;;;;38.03;4.15;;;16.10;99.90;;;;;;4199564;28;20696;-96
2022/10/02 01:13:58;;;;;;;35.90;3.90;;;16.20;99.90;;;;;;4199741;28;20159;-95
2022/10/02 01:16:02;;;;;;;43.63;4.90;;;16.30;99.90;;;;;;4199698;28;20179;-94
2022/10/02 01:18:03;;;;;;;38.42;4.05;;;16.20;99.90;;;;;;4199885;28;20209;-92
2022/10/02 01:20:06;;;;;;;27.13;4.40;;;16.30;99.90;;;;;;4199547;28;20241;-92
2022/10/02 01:22:26;;;;;;;28.10;5.03;;;16.30;99.90;;;;;;4199833;28;20209;-95
2022/10/02 01:24:42;;;;;;;28.20;4.22;;;16.20;99.90;;;;;;4199739;28;20180;-95
2022/10/02 01:26:43;;;;;;;33.22;4.07;;;16.20;99.90;;;;;;4199491;28;20174;-93
2022/10/02 01:28:44;;;;;;;38.40;3.85;;;16.10;99.90;;;;;;4215964;28;20166;-93
2022/10/02 01:30:50;;;;;;;32.65;4.55;;;16.00;99.90;;;;;;4198940;28;20213;-95
2022/10/02 01:32:52;;;;;;;33.80;4.38;;;16.00;99.90;;;;;;4199219;28;20193;-94
2022/10/02 01:34:54;;;;;;;39.15;4.30;;;16.00;99.90;;;;;;4199407;28;20254;-95
2022/10/02 01:36:56;;;;;;;33.50;3.67;;;16.00;99.90;;;;;;4199430;28;20174;-95
2022/10/02 01:38:58;;;;;;;28.70;3.70;;;15.90;99.90;;;;;;4199594;28;20241;-94
2022/10/02 01:40:58;;;;;;;35.13;4.30;;;15.80;99.90;;;;;;4199256;28;20254;-95
2022/10/02 01:43:15;;;;;;;29.67;3.83;;;15.70;99.90;;;;;;4199161;28;20175;-92
2022/10/02 01:45:16;;;;;;;22.70;3.45;;;15.80;99.90;;;;;;4216053;28;20224;-96
2022/10/02 01:47:41;;;;;;;24.15;2.88;;;15.50;99.90;;;;;;4199467;28;20175;-95
2022/10/02 01:49:57;;;;;;;29.70;4.68;;;15.40;99.90;;;;;;4199211;28;20667;-94
2022/10/02 01:52:19;;;;;;;31.85;3.55;;;15.50;99.90;;;;;;4199591;28;20240;-96
2022/10/02 01:54:33;;;;;;;31.10;3.50;;;15.50;99.90;;;;;;4216149;28;20166;-95
2022/10/02 01:56:48;;;;;;;34.50;3.80;;;15.40;99.90;;;;;;4199499;28;20170;-94
2022/10/02 01:59:06;;;;;;;30.15;3.30;;;15.50;99.90;;;;;;4199864;28;20178;-94
2022/10/02 02:01:09;;;;;;;26.98;3.15;;;15.50;99.90;;;;;;4199372;28;20630;-95
2022/10/02 02:03:13;;;;;;;23.20;3.28;;;15.60;99.90;;;;;;4199812;28;20179;-93
2022/10/02 02:05:46;;;;;;;24.35;3.30;;;15.70;99.90;;;;;;4199487;28;20170;-95
2022/10/02 02:08:07;;;;;;;32.13;3.25;;;15.70;99.90;;;;;;4187742;28;20190;-94
2022/10/02 02:10:17;;;;;;;26.25;3.20;;;15.60;99.90;;;;;;4198350;28;20202;-93
2022/10/02 02:12:22;;;;;;;26.63;3.17;;;15.60;99.90;;;;;;4198937;28;20320;-95
2022/10/02 02:14:45;;;;;;;26.70;3.60;;;15.80;99.90;;;;;;4199030;28;20662;-94
2022/10/02 02:16:58;;;;;;;30.55;3.38;;;15.90;99.90;;;;;;4199037;28;20606;-93
2022/10/02 02:19:34;;;;;;;22.02;2.85;;;15.80;99.90;;;;;;4198480;28;20262;-94
2022/10/02 02:21:47;;;;;;;25.77;3.28;;;15.80;99.90;;;;;;4195696;28;20194;-95
2022/10/02 02:23:50;;;;;;;25.88;3.15;;;15.80;99.90;;;;;;4198850;28;20197;-94
2022/10/02 02:25:56;;;;;;;24.65;3.45;;;15.90;99.90;;;;;;4198949;28;20189;-93
2022/10/02 02:28:05;;;;;;;18.15;3.15;;;16.10;99.90;;;;;;4198451;28;20189;-95
2022/10/02 02:30:10;;;;;;;23.33;3.13;;;16.10;99.90;;;;;;4198584;28;20186;-95
2022/10/02 02:32:17;;;;;;;25.27;3.20;;;16.00;99.90;;;;;;4198300;28;20218;-95
2022/10/02 02:34:32;;;;;;;22.80;3.45;;;15.90;99.90;;;;;;4198510;28;20179;-93
2022/10/02 02:36:37;;;;;;;27.77;3.63;;;15.90;99.90;;;;;;4198633;28;20175;-93
2022/10/02 02:38:53;;;;;;;19.90;2.92;;;15.90;99.90;;;;;;4198535;28;20167;-95
2022/10/02 02:41:01;;;;;;;26.88;3.25;;;15.90;99.90;;;;;;4197748;28;20267;-93
2022/10/02 02:43:07;;;;;;;33.10;3.67;;;15.80;99.90;;;;;;4198306;28;20170;-94
2022/10/02 02:45:28;;;;;;;26.98;3.15;;;15.80;99.90;;;;;;4198372;28;20198;-95
2022/10/02 02:47:43;;;;;;;29.10;3.55;;;15.90;99.90;;;;;;4198629;28;20179;-93
2022/10/02 02:49:57;;;;;;;25.02;3.70;;;15.70;99.90;;;;;;4198130;28;20190;-95
2022/10/02 02:52:02;;;;;;;21.02;2.97;;;15.80;99.90;;;;;;4198174;28;20686;-95
2022/10/02 02:54:27;;;;;;;19.00;2.70;;;15.80;99.90;;;;;;4198185;28;20179;-95
2022/10/02 02:56:30;;;;;;;25.10;2.78;;;15.90;99.90;;;;;;4197922;28;20269;-94
2022/10/02 02:58:43;;;;;;;18.08;3.08;;;16.00;99.90;;;;;;4198421;28;20179;-93
2022/10/02 03:00:44;;;;;;;25.33;3.10;;;15.90;99.90;;;;;;4198345;28;20612;-94
2022/10/02 03:02:45;;;;;;;20.92;2.75;;;15.80;99.90;;;;;;4197999;28;20171;-92
2022/10/02 03:04:45;;;;;;;15.10;2.05;;;15.70;99.90;;;;;;4198851;28;20201;-95
2022/10/02 03:06:50;;;;;;;17.05;2.05;;;15.80;99.90;;;;;;4216144;28;20173;-93
2022/10/02 03:08:52;;;;;;;15.23;1.80;;;15.90;99.90;;;;;;4215266;28;20527;-93
2022/10/02 03:11:28;;;;;;;16.20;2.25;;;16.00;99.90;;;;;;4198708;28;20592;-95
2022/10/02 03:13:49;;;;;;;10.60;1.80;;;16.00;99.90;;;;;;4199540;28;20220;-96
2022/10/02 03:16:30;;;;;;;6.45;1.50;;;15.80;99.90;;;;;;4198924;28;20175;-96
2022/10/02 03:18:39;;;;;;;8.80;1.35;;;15.80;99.90;;;;;;4198807;28;20171;-93
2022/10/02 03:21:06;;;;;;;16.55;2.00;;;15.60;99.90;;;;;;4197986;28;20198;-96
2022/10/02 03:23:40;;;;;;;14.20;1.83;;;15.40;99.90;;;;;;4197890;28;20167;-94
2022/10/02 03:25:47;;;;;;;10.40;1.50;;;15.30;99.90;;;;;;4195657;28;20201;-96
2022/10/02 03:27:58;;;;;;;16.88;1.70;;;15.40;99.90;;;;;;4198102;28;20240;-95
2022/10/02 03:30:08;;;;;;;16.75;1.75;;;15.50;99.90;;;;;;4197880;28;20848;-95
2022/10/02 03:32:11;;;;;;;15.52;1.70;;;15.60;99.90;;;;;;4197521;28;20241;-95
2022/10/02 03:34:12;;;;;;;14.27;1.70;;;15.70;99.90;;;;;;4198333;28;20238;-95
2022/10/02 03:36:16;;;;;;;14.30;1.60;;;15.80;99.90;;;;;;4214496;28;20188;-96
2022/10/02 03:38:18;;;;;;;14.68;1.65;;;15.70;99.90;;;;;;4197733;28;20236;-95
2022/10/02 03:40:23;;;;;;;11.98;1.85;;;15.60;99.90;;;;;;4197678;28;20282;-95
2022/10/02 03:42:26;;;;;;;16.73;1.90;;;15.50;99.90;;;;;;4197813;28;20179;-94
2022/10/02 03:44:26;;;;;;;23.75;2.20;;;15.50;99.90;;;;;;4197631;28;20171;-92
2022/10/02 03:46:27;;;;;;;16.70;1.98;;;15.50;99.90;;;;;;4198035;28;20178;-93
2022/10/02 03:48:28;;;;;;;19.08;2.50;;;15.50;99.90;;;;;;4198158;28;20250;-95
2022/10/02 03:50:29;;;;;;;16.67;2.20;;;15.70;99.90;;;;;;4197475;28;20285;-94
2022/10/02 03:52:32;;;;;;;15.48;2.35;;;15.70;99.90;;;;;;4198076;28;20237;-94
2022/10/02 03:54:35;;;;;;;18.67;2.42;;;15.70;99.90;;;;;;4201775;28;20163;-96
2022/10/02 03:56:41;;;;;;;23.67;2.13;;;15.60;99.90;;;;;;4201933;28;20175;-95
2022/10/02 03:58:47;;;;;;;25.10;2.38;;;15.50;99.90;;;;;;4201370;28;20689;-95
2022/10/02 04:01:06;;;;;;;20.70;2.28;;;15.60;99.90;;;;;;4201067;28;20190;-93
2022/10/02 04:03:14;;;;;;;17.65;2.80;;;15.60;99.90;;;;;;4201757;28;20710;-95
2022/10/02 04:05:26;;;;;;;17.42;2.40;;;15.70;99.90;;;;;;4201021;28;20182;-95
2022/10/02 04:07:34;;;;;;;22.50;2.55;;;15.60;99.90;;;;;;4201113;28;20194;-96
2022/10/02 04:10:13;;;;;;;22.27;2.67;;;15.60;99.90;;;;;;4201202;28;20201;-94
2022/10/02 04:12:35;;;;;;;20.20;2.15;;;15.70;99.90;;;;;;4191395;28;20233;-95
2022/10/02 04:15:00;;;;;;;20.58;2.47;;;15.50;99.90;;;;;;4200693;28;20174;-94
2022/10/02 04:17:10;;;;;;;20.92;2.67;;;15.30;99.90;;;;;;4200674;28;20182;-92
2022/10/02 04:19:24;;;;;;;23.65;2.60;;;15.30;99.90;;;;;;4200577;28;20558;-96
2022/10/02 04:21:40;;;;;;;22.35;2.67;;;15.10;99.90;;;;;;4200536;28;20226;-96
2022/10/02 04:24:25;;;;;;;17.73;2.30;;;15.30;99.90;;;;;;4200884;28;20237;-94
2022/10/02 04:26:34;;;;;;;13.48;2.03;;;15.30;99.90;;;;;;4201038;28;20171;-93
2022/10/02 04:28:40;;;;;;;22.80;2.38;;;15.30;99.90;;;;;;4200647;28;20181;-95
2022/10/02 04:30:41;;;;;;;19.45;2.50;;;15.20;99.90;;;;;;4200337;28;20191;-93
2022/10/02 04:32:42;;;;;;;23.65;2.50;;;15.30;99.90;;;;;;4217461;28;20193;-93
2022/10/02 04:34:43;;;;;;;18.13;2.42;;;15.40;99.90;;;;;;4200566;28;20171;-95
2022/10/02 04:37:15;;;;;;;17.65;2.35;;;15.40;99.90;;;;;;4200180;28;20281;-95
2022/10/02 04:39:36;;;;;;;18.73;2.58;;;15.50;99.90;;;;;;4200520;28;20501;-94
2022/10/02 04:41:43;;;;;;;17.40;1.95;;;15.60;99.90;;;;;;4200661;28;20174;-94
2022/10/02 04:44:11;;;;;;;18.05;2.08;;;15.50;99.90;;;;;;4200229;28;20178;-93
2022/10/02 04:46:23;;;;;;;19.88;2.42;;;15.40;99.90;;;;;;4200057;28;20179;-95
2022/10/02 04:48:53;;;;;;;21.10;2.30;;;15.40;99.90;;;;;;4200156;28;20174;-93
2022/10/02 04:51:04;;;;;;;14.63;1.92;;;15.40;99.90;;;;;;4199973;28;20266;-96
2022/10/02 04:53:31;;;;;;;16.70;2.33;;;15.40;99.90;;;;;;4200357;28;20178;-96
2022/10/02 04:55:50;;;;;;;17.75;2.40;;;15.60;99.90;;;;;;4200462;28;20178;-94
2022/10/02 04:57:57;;;;;;;13.10;2.00;;;15.30;99.90;;;;;;4200372;28;20570;-94
2022/10/02 04:59:57;;;;;;;18.95;2.33;;;15.20;99.90;;;;;;4200249;28;20225;-93
2022/10/02 05:02:16;;;;;;;15.02;1.95;;;15.40;99.90;;;;;;4200206;28;20216;-95
2022/10/02 05:04:37;;;;;;;17.88;2.15;;;15.30;99.90;;;;;;4199676;28;20171;-94
2022/10/02 05:06:55;;;;;;;17.70;2.22;;;15.40;99.90;;;;;;4200508;28;20558;-95
2022/10/02 05:09:02;;;;;;;13.27;1.88;;;15.50;99.90;;;;;;4199816;28;20171;-95
2022/10/02 05:11:21;;;;;;;15.57;2.25;;;15.40;99.90;;;;;;4199690;28;20225;-96
2022/10/02 05:13:31;;;;;;;15.88;2.03;;;15.40;99.90;;;;;;4216596;28;20201;-93
2022/10/02 05:15:55;;;;;;;15.52;1.92;;;15.40;99.90;;;;;;4200129;28;20247;-96
2022/10/02 05:18:16;;;;;;;15.55;2.33;;;15.30;99.90;;;;;;4200547;28;20179;-96
2022/10/02 05:20:55;;;;;;;21.35;2.38;;;15.40;99.90;;;;;;4200131;28;20245;-95
2022/10/02 05:23:14;;;;;;;16.25;2.13;;;15.40;99.90;;;;;;4200458;28;20218;-96
2022/10/02 05:25:34;;;;;;;11.10;1.75;;;15.50;99.90;;;;;;4199796;28;20178;-96
2022/10/02 05:27:49;;;;;;;14.82;1.90;;;15.60;99.90;;;;;;4201601;28;20182;-94
2022/10/02 05:30:04;;;;;;;16.90;2.40;;;15.50;99.90;;;;;;4201144;28;20191;-96
2022/10/02 05:32:17;;;;;;;16.85;2.45;;;15.50;99.90;;;;;;4200961;28;20221;-95
2022/10/02 05:34:55;;;;;;;16.08;2.00;;;15.40;99.90;;;;;;4200360;28;20234;-95
2022/10/02 05:37:12;;;;;;;16.73;2.28;;;15.50;99.90;;;;;;4199993;28;20289;-95
2022/10/02 05:39:32;;;;;;;20.08;2.28;;;15.50;99.90;;;;;;4200774;28;20705;-93
2022/10/02 05:41:57;;;;;;;20.30;2.63;;;15.50;99.90;;;;;;4185469;28;20172;-93
2022/10/02 05:44:15;;;;;;;15.65;2.30;;;15.50;99.90;;;;;;4200599;28;20175;-95
2022/10/02 05:46:32;;;;;;;15.10;1.90;;;15.40;99.90;;;;;;4199728;28;20597;-94
2022/10/02 05:48:40;;;;;;;11.07;1.80;;;15.20;99.90;;;;;;4216672;28;20618;-96
2022/10/02 05:50:44;;;;;;;17.30;2.50;;;15.10;99.90;;;;;;4199326;28;20247;-96
2022/10/02 05:52:59;;;;;;;10.77;1.67;;;15.10;99.90;;;;;;4199797;28;20170;-93
2022/10/02 05:55:12;;;;;;;12.95;1.73;;;15.00;99.90;;;;;;4199989;28;20524;-94
2022/10/02 05:57:21;;;;;;;10.48;1.73;;;15.00;99.90;;;;;;4199841;28;20179;-93
2022/10/02 05:59:35;;;;;;;13.68;1.95;;;15.10;99.90;;;;;;4199207;28;20262;-93
2022/10/02 06:01:48;;;;;;;17.20;1.92;;;15.20;99.90;;;;;;4199193;28;20190;-95
2022/10/02 06:03:56;;;;;;;11.43;2.15;;;15.10;99.90;;;;;;4199277;28;20171;-95
2022/10/02 06:06:09;;;;;;;13.73;2.05;;;15.00;99.90;;;;;;4198879;28;20175;-94
2022/10/02 06:08:19;;;;;;;16.10;2.13;;;15.00;99.90;;;;;;4199231;28;20174;-96
2022/10/02 06:10:29;;;;;;;14.30;2.05;;;15.00;99.90;;;;;;4198808;28;20191;-96
2022/10/02 06:12:38;;;;;;;15.63;2.30;;;15.00;99.90;;;;;;4199021;28;20218;-94
2022/10/02 06:14:42;;;;;;;12.95;1.88;;;15.10;99.90;;;;;;4198662;28;20174;-95
2022/10/02 06:16:45;;;;;;;17.27;3.75;;;15.10;99.90;;;;;;4214811;28;20181;-96
2022/10/02 06:18:54;;;;;;;16.80;3.50;;;15.20;99.90;;;;;;4199210;28;20190;-96
2022/10/02 06:21:30;;;;;;;13.18;2.63;;;15.20;99.90;;;;;;4199027;28;20658;-95
2022/10/02 06:23:39;;;;;;;17.42;5.55;;;15.20;99.90;;;;;;4198562;28;20182;-96
2022/10/02 06:25:58;;;;;;;13.13;2.03;;;15.40;99.90;;;;;;4198715;28;20178;-94
2022/10/02 06:28:06;;;;;;;22.88;3.95;;;15.40;99.90;;;;;;4198955;28;20170;-95
2022/10/02 06:30:13;;;;;;;16.00;1.85;;;15.30;99.90;;;;;;4198828;28;20677;-94
2022/10/02 06:32:14;;;;;;;15.85;2.40;;;15.30;99.90;;;;;;4198736;28;20694;-94
2022/10/02 06:34:14;;;;;;;13.70;4.22;;;15.30;99.90;;;;;;4199048;28;20179;-96
2022/10/02 06:36:32;;;;;;;16.15;3.10;;;15.30;99.90;;;;;;4198939;28;20269;-95
2022/10/02 06:38:59;;;;;;;15.93;3.20;;;15.30;99.90;;;;;;4215596;28;20174;-96
2022/10/02 06:41:35;;;;;;;23.55;10.77;;;15.30;99.90;;;;;;4199010;28;20175;-96
2022/10/02 06:44:13;;;;;;;32.55;14.45;;;15.40;99.90;;;;;;4198997;28;20189;-96
2022/10/02 06:46:49;;;;;;;18.83;7.10;;;15.40;99.90;;;;;;4185438;28;20269;-96
2022/10/02 06:49:07;;;;;;;31.50;13.63;;;15.40;99.90;;;;;;4219232;28;20829;-96
2022/10/02 06:51:09;;;;;;;32.58;13.93;;;15.40;99.90;;;;;;4201704;28;20194;-95
2022/10/02 06:53:31;;;;;;;26.23;9.32;;;15.40;99.90;;;;;;4205206;28;20185;-95
2022/10/02 06:56:28;;;;;;;17.63;7.05;;;15.40;99.90;;;;;;4204487;28;20178;-95
2022/10/02 06:58:35;;;;;;;23.27;8.95;;;15.50;99.90;;;;;;4171492;28;20179;-96
2022/10/02 07:00:52;;;;;;;28.52;12.77;;;15.50;99.90;;;;;;4201237;28;20238;-95
2022/10/02 07:03:17;;;;;;;14.60;2.40;;;15.50;99.90;;;;;;4218161;28;20209;-96
2022/10/02 07:05:36;;;;;;;20.67;6.88;;;15.50;99.90;;;;;;4200295;28;20175;-96
2022/10/02 07:08:05;;;;;;;16.15;5.38;;;15.50;99.90;;;;;;4200603;28;20643;-96
2022/10/02 07:10:18;;;;;;;14.73;4.82;;;15.50;99.90;;;;;;4199429;28;20728;-94
2022/10/02 07:12:42;;;;;;;21.08;2.40;;;15.20;99.90;;;;;;4200969;28;20234;-96
2022/10/02 07:15:10;;;;;;;14.20;2.92;;;15.30;99.90;;;;;;4201004;28;20175;-94
2022/10/02 07:17:57;;;;;;;17.95;2.28;;;15.30;99.90;;;;;;4219026;28;20192;-96
2022/10/02 07:20:04;;;;;;;13.98;2.08;;;15.60;99.90;;;;;;4201066;28;20194;-96
2022/10/02 07:22:34;;;;;;;10.15;3.22;;;15.70;99.90;;;;;;4215862;28;20189;-96
2022/10/02 07:24:50;;;;;;;10.23;3.20;;;15.60;99.90;;;;;;4200421;28;20238;-96
2022/10/02 07:27:19;;;;;;;15.05;2.65;;;15.60;99.90;;;;;;4199659;28;20171;-95
2022/10/02 07:29:57;;;;;;;12.80;3.05;;;15.60;99.90;;;;;;4199509;28;20686;-95
2022/10/02 07:32:22;;;;;;;19.90;4.57;;;15.70;99.90;;;;;;4218288;28;20201;-96
2022/10/02 07:34:55;;;;;;;16.08;4.72;;;15.60;99.90;;;;;;4200338;28;20655;-96
2022/10/02 07:37:36;;;;;;;9.02;1.90;;;15.50;99.90;;;;;;4187595;28;20198;-96
2022/10/02 07:39:58;;;;;;;11.63;2.00;;;15.60;99.90;;;;;;4220305;28;20201;-96
2022/10/02 07:42:18;;;;;;;10.20;2.25;;;15.70;99.90;;;;;;4219510;28;20231;-96
2022/10/02 07:44:34;;;;;;;18.42;2.78;;;15.80;99.90;;;;;;4202962;28;20175;-95
2022/10/02 07:47:07;;;;;;;14.15;2.47;;;16.00;99.90;;;;;;4201393;28;20175;-96
2022/10/02 07:49:44;;;;;;;9.88;2.72;;;15.80;99.90;;;;;;4202696;28;20210;-95
2022/10/02 07:52:11;;;;;;;46.22;25.33;;;15.70;99.90;;;;;;4175381;28;20222;-96
2022/10/02 07:54:27;;;;;;;7.90;2.13;;;15.60;99.90;;;;;;4220361;28;20170;-95
2022/10/02 07:56:32;;;;;;;27.90;15.10;;;15.60;99.90;;;;;;4220049;28;20211;-96
2022/10/02 07:58:45;;;;;;;14.80;3.75;;;15.80;99.90;;;;;;4203397;28;20175;-95
2022/10/02 08:00:53;;;;;;;8.82;2.40;;;15.90;99.90;;;;;;4202133;28;20214;-95
2022/10/02 08:03:01;;;;;;;13.38;3.05;;;15.90;99.90;;;;;;4200790;28;20263;-96
2022/10/02 08:05:19;;;;;;;13.98;4.43;;;16.10;99.90;;;;;;4200061;28;20204;-96
2022/10/02 08:07:21;;;;;;;12.18;1.98;;;16.20;99.90;;;;;;4202034;28;20185;-96
2022/10/02 08:09:55;;;;;;;20.88;13.32;;;16.30;99.90;;;;;;4199229;28;20191;-96
2022/10/02 08:12:09;;;;;;;14.10;2.55;;;16.40;99.90;;;;;;4193219;28;20779;-96
2022/10/02 08:14:19;;;;;;;8.48;2.60;;;16.30;99.90;;;;;;4198877;28;20274;-96
2022/10/02 08:16:26;;;;;;;9.68;2.60;;;16.20;99.90;;;;;;4199339;28;20183;-96
2022/10/02 08:18:37;;;;;;;11.90;2.67;;;16.20;99.90;;;;;;4200672;28;20197;-96
2022/10/02 08:20:42;;;;;;;5.85;1.65;;;16.40;99.90;;;;;;4200601;28;20276;-96
2022/10/02 08:22:56;;;;;;;7.70;1.40;;;16.40;99.90;;;;;;4199134;28;20178;-96
2022/10/02 08:25:18;;;;;;;8.40;3.65;;;16.60;99.90;;;;;;4199507;28;20175;-96
2022/10/02 08:27:45;;;;;;;8.23;1.13;;;16.50;99.90;;;;;;4201050;28;20186;-96
2022/10/02 08:29:56;;;;;;;7.43;1.23;;;16.50;99.90;;;;;;4198516;28;20282;-96
2022/10/02 08:31:57;;;;;;;12.20;2.00;;;16.60;99.90;;;;;;4198823;28;20683;-96
2022/10/02 08:34:25;;;;;;;11.50;1.77;;;16.50;99.90;;;;;;4200208;28;20174;-96
2022/10/02 08:36:38;;;;;;;10.10;2.65;;;16.40;99.90;;;;;;4200474;28;20285;-94
2022/10/02 08:38:46;;;;;;;7.93;1.50;;;16.40;99.90;;;;;;4217662;28;20174;-96
2022/10/02 08:41:23;;;;;;;7.90;1.52;;;16.40;99.90;;;;;;4205453;28;20168;-95
2022/10/02 08:44:05;;;;;;;10.95;1.40;;;16.50;99.90;;;;;;4227359;28;20196;-95
2022/10/02 08:53:17;;;;;;;9.30;4.90;;;16.60;99.90;;;;;;4186232;28;20188;-95
2022/10/02 08:55:57;;;;;;;5.97;1.30;;;16.50;99.90;;;;;;4146798;28;20235;-94
2022/10/02 08:59:01;;;;;;;;;;;;;;;;;;;;;
2022/10/02 09:01:23;;;;;;;5.43;1.50;;;16.50;99.90;;;;;;4201076;28;20175;-96
2022/10/02 09:04:15;;;;;;;8.95;2.88;;;16.50;99.90;;;;;;4196536;28;20227;-96
2022/10/02 09:07:13;;;;;;;7.07;1.95;;;16.70;99.90;;;;;;4191646;28;20187;-95
2022/10/02 09:09:49;;;;;;;14.85;8.55;;;16.70;99.90;;;;;;4198647;28;20186;-95
2022/10/02 09:12:43;;;;;;;5.53;1.52;;;16.60;99.90;;;;;;4185553;28;20217;-95
2022/10/02 09:15:05;;;;;;;8.60;1.95;;;16.50;99.90;;;;;;4203298;28;20249;-96
2022/10/02 09:18:11;;;;;;;6.45;1.70;;;16.60;99.90;;;;;;4203549;28;20182;-95
2022/10/02 09:21:02;;;;;;;6.25;1.92;;;16.60;99.90;;;;;;4205057;28;20201;-96
2022/10/02 09:47:11;;;;;;;5.75;1.50;;;15.90;99.90;;;;;;4190733;28;20193;-96
2022/10/02 09:52:39;;;;;;;6.07;1.88;;;16.10;99.90;;;;;;4191596;28;20222;-96
2022/10/02 10:09:09;;;;;;;;;;;;;;;;;;;;;
2022/10/02 10:11:21;;;;;;;7.25;2.80;;;16.50;99.90;;;;;;4136706;28;20646;-93
2022/10/02 10:13:36;;;;;;;11.73;4.75;;;16.30;99.90;;;;;;4136231;28;20208;-95
2022/10/02 10:16:28;;;;;;;5.72;2.42;;;16.10;99.90;;;;;;4117751;28;20265;-95
2022/10/02 10:19:46;;;;;;;;;;;;;;;;;;;;;
2022/10/02 10:22:44;;;;;;;6.20;2.60;;;16.10;99.90;;;;;;4134829;28;20280;-96
2022/10/02 10:25:34;;;;;;;8.23;1.15;;;16.40;99.90;;;;;;4134796;28;20244;-96
2022/10/02 10:27:50;;;;;;;5.47;1.67;;;16.40;99.90;;;;;;4117667;28;20273;-94
2022/10/02 10:30:35;;;;;;;12.15;2.53;;;16.40;99.90;;;;;;4117573;28;20285;-95
2022/10/02 10:33:07;;;;;;;7.20;2.40;;;16.30;99.90;;;;;;4134219;28;20716;-95
2022/10/02 10:35:14;;;;;;;7.15;2.42;;;16.60;99.90;;;;;;4133835;28;20210;-94
2022/10/02 10:46:58;;;;;;;19.60;10.75;;;16.20;99.90;;;;;;4092799;29;20189;-95
2022/10/02 10:49:37;;;;;;;;;;;;;;;;;;;;;
2022/10/02 10:55:51;;;;;;;5.75;2.60;;;16.30;99.90;;;;;;4103790;29;20298;-95
2022/10/02 11:05:33;;;;;;;6.88;1.50;;;16.60;99.90;;;;;;4055934;29;20237;-95
2022/10/02 11:08:11;;;;;;;6.13;2.00;;;16.70;99.90;;;;;;4200028;22;20222;-93
2022/10/02 11:13:14;;;;;;;5.95;1.70;;;17.10;99.90;;;;;;4154658;28;20200;-95
2022/10/02 11:16:17;;;;;;;5.53;1.67;;;17.20;99.90;;;;;;4155756;28;20177;-93
2022/10/02 11:18:46;;;;;;;8.30;1.50;;;17.40;99.90;;;;;;4154201;28;20685;-94
2022/10/02 11:21:29;;;;;;;4.55;1.95;;;17.40;99.90;;;;;;4143288;28;20658;-94
2022/10/02 11:24:21;;;;;;;6.25;1.50;;;17.10;99.90;;;;;;4155463;28;20184;-96
2022/10/02 11:26:50;;;;;;;3.22;1.10;;;16.80;99.90;;;;;;4155618;28;20181;-93
2022/10/02 11:29:41;;;;;;;4.63;1.50;;;16.60;99.90;;;;;;4156213;28;20173;-95
2022/10/02 11:32:26;;;;;;;4.15;1.52;;;16.60;99.90;;;;;;4140479;28;20233;-95
2022/10/02 11:34:57;;;;;;;4.88;1.45;;;16.60;99.90;;;;;;4141378;28;20646;-92
2022/10/02 11:37:26;;;;;;;2.47;1.25;;;16.70;99.90;;;;;;4139113;28;20204;-94
2022/10/02 11:39:35;;;;;;;7.93;1.20;;;16.90;99.90;;;;;;4152397;28;20193;-94
2022/10/02 11:42:08;;;;;;;6.32;1.42;;;16.80;99.90;;;;;;4139243;28;20184;-93
2022/10/02 11:44:37;;;;;;;5.55;1.63;;;16.90;99.90;;;;;;4140668;28;20196;-93
2022/10/02 11:47:06;;;;;;;4.63;1.67;;;17.00;99.90;;;;;;4158952;28;20235;-93
2022/10/02 11:50:06;;;;;;;4.75;1.13;;;17.20;99.90;;;;;;4144426;28;20173;-94
2022/10/02 11:52:43;;;;;;;4.10;1.50;;;17.20;99.90;;;;;;4162334;28;20215;-94
2022/10/02 11:58:13;;;;;;;3.90;1.52;;;17.00;99.90;;;;;;4161596;28;20181;-95
2022/10/02 12:00:44;;;;;;;5.28;1.80;;;17.10;99.90;;;;;;4161264;28;20205;-94
2022/10/02 12:03:04;;;;;;;3.72;1.20;;;17.30;99.90;;;;;;4147851;28;20228;-94
2022/10/02 12:06:02;;;;;;;6.88;1.45;;;17.30;99.90;;;;;;4164659;28;20165;-93
2022/10/02 12:12:23;;;;;;;4.88;1.60;;;17.50;99.90;;;;;;4163224;28;20223;-93
2022/10/02 12:18:41;;;;;;;7.03;2.05;;;17.50;99.90;;;;;;4167658;28;20173;-93
2022/10/02 12:29:14;;;;;;;10.65;2.10;;;17.40;99.90;;;;;;4153752;28;20181;-95
2022/10/02 12:32:03;;;;;;;6.57;2.05;;;17.30;99.90;;;;;;4153028;28;20220;-95
2022/10/02 12:34:47;;;;;;;6.68;2.03;;;17.20;99.90;;;;;;4149796;28;20181;-94
2022/10/02 12:37:14;;;;;;;8.18;2.20;;;16.90;99.90;;;;;;4165193;28;20229;-92
2022/10/02 12:39:54;;;;;;;8.35;2.63;;;17.00;99.90;;;;;;4255904;22;20245;-92
2022/10/02 12:42:39;;;;;;;4.57;1.70;;;17.30;99.90;;;;;;4166585;28;20157;-93
2022/10/02 12:45:20;;;;;;;5.32;2.10;;;17.50;99.90;;;;;;4167841;28;20185;-94
2022/10/02 12:47:29;;;;;;;7.28;2.15;;;17.70;99.90;;;;;;4147694;28;20165;-94
2022/10/02 12:49:49;;;;;;;5.22;2.30;;;17.80;99.90;;;;;;4147932;28;20189;-93
2022/10/02 12:52:27;;;;;;;7.53;2.33;;;17.70;99.90;;;;;;4161550;28;20209;-93
2022/10/02 12:54:52;;;;;;;7.00;2.00;;;17.70;99.90;;;;;;4146063;28;20193;-93
2022/10/02 12:57:08;;;;;;;7.63;2.35;;;17.80;99.90;;;;;;4147269;28;20176;-96
2022/10/02 12:59:12;;;;;;;5.45;2.42;;;17.90;99.90;;;;;;4162816;28;20165;-93
2022/10/02 13:01:35;;;;;;;8.63;2.80;;;18.00;99.90;;;;;;4162930;28;20242;-94
2022/10/02 13:03:54;;;;;;;8.00;2.70;;;18.30;99.90;;;;;;4162684;28;20157;-93
2022/10/02 13:06:09;;;;;;;6.57;2.80;;;18.20;99.90;;;;;;4146564;28;20224;-95
2022/10/02 13:08:17;;;;;;;6.65;2.47;;;18.10;99.90;;;;;;4158433;28;20211;-93
2022/10/02 13:10:29;;;;;;;7.63;2.65;;;18.30;99.90;;;;;;4155746;28;20196;-96
2022/10/02 13:12:55;;;;;;;6.43;2.50;;;18.30;99.90;;;;;;4151208;28;20671;-93
2022/10/02 13:15:15;;;;;;;9.82;2.45;;;18.00;99.90;;;;;;4152171;28;20175;-95
2022/10/02 13:17:27;;;;;;;10.27;2.75;;;18.00;99.90;;;;;;4135391;28;20181;-95
2022/10/02 13:20:09;;;;;;;7.00;2.45;;;18.20;99.90;;;;;;4136242;28;20287;-94
2022/10/02 13:22:35;;;;;;;8.50;2.63;;;18.20;99.90;;;;;;4157781;28;20181;-93
2022/10/02 13:24:36;;;;;;;8.05;2.67;;;18.40;99.90;;;;;;4151565;28;20185;-94
2022/10/02 13:26:51;;;;;;;5.35;2.58;;;18.50;99.90;;;;;;4152206;28;20557;-95
2022/10/02 13:29:13;;;;;;;11.90;4.15;;;18.40;99.90;;;;;;4139361;28;20223;-95